createdAt,value
2019-05-03T00:00:44.982Z,71.12
2019-05-03T00:01:44.970Z,71.12
2019-05-03T00:02:44.960Z,71.53
2019-05-03T00:03:44.941Z,71.33
2019-05-03T00:04:44.946Z,71.43
2019-05-03T00:05:44.943Z,71.53
2019-05-03T00:06:44.916Z,71.73
2019-05-03T00:07:44.910Z,71.63
2019-05-03T00:08:44.890Z,71.63
2019-05-03T00:09:44.897Z,71.33
2019-05-03T00:10:44.867Z,71.53
2019-05-03T00:11:44.867Z,71.12
2019-05-03T00:12:44.851Z,72.45
2019-05-03T00:13:44.834Z,71.73
2019-05-03T00:14:44.840Z,71.84
2019-05-03T00:15:44.814Z,71.63
2019-05-03T00:16:44.808Z,71.63
2019-05-03T00:17:44.801Z,71.53
2019-05-03T00:18:44.780Z,71.63
2019-05-03T00:19:44.795Z,71.94
2019-05-03T00:20:44.751Z,71.73
2019-05-03T00:21:44.782Z,71.63
2019-05-03T00:22:44.742Z,72.55
2019-05-03T00:23:44.738Z,71.84
2019-05-03T00:24:44.732Z,71.73
2019-05-03T00:25:44.710Z,71.94
2019-05-03T00:26:44.684Z,71.63
2019-05-03T00:27:44.681Z,71.53
2019-05-03T00:28:44.695Z,71.63
2019-05-03T00:29:44.668Z,72.24
2019-05-03T00:30:44.681Z,72.34
2019-05-03T00:31:44.630Z,71.12
2019-05-03T00:32:44.633Z,71.23
2019-05-03T00:33:44.612Z,72.14
2019-05-03T00:34:46.486Z,71.94
2019-05-03T00:35:44.583Z,71.94
2019-05-03T00:36:44.578Z,72.55
2019-05-03T00:37:44.594Z,72.14
2019-05-03T00:38:44.560Z,72.45
2019-05-03T00:39:44.558Z,71.73
2019-05-03T00:40:44.527Z,72.14
2019-05-03T00:41:44.514Z,72.17
2019-05-03T00:42:44.509Z,72.48
2019-05-03T00:43:44.498Z,71.63
2019-05-03T00:44:44.500Z,72.45
2019-05-03T00:45:44.471Z,72.34
2019-05-03T00:46:44.479Z,72.24
2019-05-03T00:47:44.452Z,71.84
2019-05-03T00:48:44.435Z,72.24
2019-05-03T00:49:44.477Z,72.58
2019-05-03T00:50:44.466Z,72.14
2019-05-03T00:51:44.399Z,73.06
2019-05-03T00:52:44.399Z,72.75
2019-05-03T00:53:44.378Z,72.04
2019-05-03T00:54:44.384Z,72.38
2019-05-03T00:55:44.370Z,72.28
2019-05-03T00:56:44.580Z,72.04
2019-05-03T00:57:44.340Z,72.89
2019-05-03T00:58:44.324Z,72.96
2019-05-03T00:59:44.332Z,72.28
2019-05-03T01:00:44.366Z,72.55
2019-05-03T01:01:44.291Z,72.79
2019-05-03T01:02:44.279Z,73.10
2019-05-03T01:03:44.277Z,72.28
2019-05-03T01:04:44.277Z,72.38
2019-05-03T01:05:44.263Z,72.28
2019-05-03T01:06:44.236Z,72.04
2019-05-03T01:07:44.226Z,72.45
2019-05-03T01:08:44.209Z,71.94
2019-05-03T01:09:44.198Z,72.58
2019-05-03T01:10:44.222Z,72.58
2019-05-03T01:11:44.211Z,71.87
2019-05-03T01:12:44.165Z,71.46
2019-05-03T01:13:44.156Z,71.36
2019-05-03T01:14:44.166Z,71.67
2019-05-03T01:15:44.129Z,71.56
2019-05-03T01:16:44.143Z,71.36
2019-05-03T01:17:44.115Z,71.19
2019-05-03T01:18:44.106Z,71.15
2019-05-03T01:19:44.097Z,71.06
2019-05-03T01:20:44.108Z,70.37
2019-05-03T01:21:44.085Z,70.27
2019-05-03T01:22:44.072Z,69.25
2019-05-03T01:23:44.053Z,69.15
2019-05-03T01:24:44.054Z,69.02
2019-05-03T01:25:44.024Z,68.64
2019-05-03T01:26:44.075Z,68.44
2019-05-03T01:27:44.000Z,68.54
2019-05-03T01:28:44.004Z,69.05
2019-05-03T01:29:43.980Z,68.77
2019-05-03T01:30:43.969Z,68.44
2019-05-03T01:31:43.986Z,68.74
2019-05-03T01:32:43.965Z,70.07
2019-05-03T01:33:43.937Z,69.05
2019-05-03T01:34:43.930Z,68.74
2019-05-03T01:35:43.916Z,68.95
2019-05-03T01:36:43.924Z,69.49
2019-05-03T01:37:43.922Z,69.49
2019-05-03T01:38:43.880Z,69.49
2019-05-03T01:39:43.870Z,69.18
2019-05-03T01:40:43.871Z,69.29
2019-05-03T01:41:43.878Z,69.49
2019-05-03T01:42:43.858Z,69.29
2019-05-03T01:43:43.838Z,69.38
2019-05-03T01:44:43.834Z,69.49
2019-05-03T01:45:43.828Z,69.18
2019-05-03T01:46:43.813Z,69.49
2019-05-03T01:47:43.813Z,70.20
2019-05-03T01:48:43.771Z,70.10
2019-05-03T01:49:43.764Z,69.69
2019-05-03T01:50:43.760Z,69.69
2019-05-03T01:51:44.062Z,69.59
2019-05-03T01:52:43.733Z,70.72
2019-05-03T01:53:43.718Z,69.38
2019-05-03T01:54:43.714Z,70.10
2019-05-03T01:55:46.463Z,68.57
2019-05-03T01:56:55.968Z,69.62
2019-05-03T01:57:44.699Z,69.73
2019-05-03T01:58:43.670Z,69.18
2019-05-03T01:59:43.670Z,69.08
2019-05-03T02:00:43.641Z,69.62
2019-05-03T02:01:43.629Z,69.01
2019-05-03T02:02:43.643Z,69.11
2019-05-03T02:03:43.676Z,68.50
2019-05-03T02:04:43.594Z,68.19
2019-05-03T02:05:43.584Z,67.45
2019-05-03T02:06:43.577Z,67.68
2019-05-03T02:07:43.599Z,68.09
2019-05-03T02:08:43.565Z,67.89
2019-05-03T02:09:43.555Z,66.86
2019-05-03T02:10:43.768Z,67.58
2019-05-03T02:11:43.516Z,64.31
2019-05-03T02:12:43.536Z,65.74
2019-05-03T02:13:43.522Z,64.62
2019-05-03T02:14:43.485Z,64.83
2019-05-03T02:15:43.483Z,65.64
2019-05-03T02:16:43.459Z,65.74
2019-05-03T02:17:43.485Z,65.16
2019-05-03T02:18:43.448Z,64.72
2019-05-03T02:19:43.428Z,64.55
2019-05-03T02:20:43.425Z,64.65
2019-05-03T02:21:43.405Z,64.31
2019-05-03T02:22:43.396Z,64.01
2019-05-03T02:23:43.407Z,64.31
2019-05-03T02:24:43.426Z,64.14
2019-05-03T02:25:55.133Z,64.96
2019-05-03T02:26:44.349Z,65.77
2019-05-03T02:27:43.337Z,64.65
2019-05-03T02:28:43.348Z,64.86
2019-05-03T02:29:43.318Z,65.37
2019-05-03T02:30:44.267Z,64.24
2019-05-03T02:31:43.813Z,64.75
2019-05-03T02:32:44.137Z,64.65
2019-05-03T02:33:43.665Z,64.65
2019-05-03T02:34:44.158Z,64.14
2019-05-03T02:35:43.256Z,64.45
2019-05-03T02:36:43.260Z,63.02
2019-05-03T02:37:43.863Z,64.14
2019-05-03T02:38:43.336Z,64.14
2019-05-03T02:39:43.209Z,62.71
2019-05-03T02:40:43.276Z,61.90
2019-05-03T02:41:47.867Z,60.49
2019-05-03T02:42:46.352Z,59.57
2019-05-03T02:43:45.292Z,61.10
2019-05-03T02:44:45.900Z,62.63
2019-05-03T02:45:45.544Z,62.63
2019-05-03T02:46:45.417Z,62.02
2019-05-03T02:47:43.122Z,63.45
2019-05-03T02:48:45.694Z,63.56
2019-05-03T02:49:45.324Z,63.35
2019-05-03T02:50:45.143Z,63.56
2019-05-03T02:51:45.941Z,63.79
2019-05-03T02:52:45.547Z,63.79
2019-05-03T02:53:45.512Z,64.37
2019-05-03T02:54:46.246Z,64.78
2019-05-03T02:55:45.392Z,64.30
2019-05-03T02:56:43.031Z,64.71
2019-05-03T02:57:46.221Z,64.81
2019-05-03T02:58:43.005Z,64.89
2019-05-03T02:59:45.202Z,64.81
2019-05-03T03:00:45.450Z,64.71
2019-05-03T03:01:42.974Z,64.71
2019-05-03T03:02:45.478Z,64.81
2019-05-03T03:03:45.695Z,66.04
2019-05-03T03:04:45.325Z,65.12
2019-05-03T03:05:42.937Z,65.73
2019-05-03T03:06:45.303Z,65.43
2019-05-03T03:07:45.767Z,66.04
2019-05-03T03:08:45.342Z,65.77
2019-05-03T03:09:45.114Z,65.73
2019-05-03T03:10:45.549Z,67.10
2019-05-03T03:11:45.618Z,66.58
2019-05-03T03:12:46.227Z,66.48
2019-05-03T03:13:45.605Z,66.58
2019-05-03T03:14:45.461Z,66.28
2019-05-03T03:15:45.690Z,66.48
2019-05-03T03:16:45.400Z,66.07
2019-05-03T03:17:45.562Z,67.02
2019-05-03T03:18:45.357Z,66.20
2019-05-03T03:19:42.800Z,66.51
2019-05-03T03:20:44.940Z,66.10
2019-05-03T03:21:42.760Z,67.13
2019-05-03T03:22:45.316Z,66.51
2019-05-03T03:23:42.737Z,66.24
2019-05-03T03:24:45.547Z,67.57
2019-05-03T03:25:42.723Z,66.54
2019-05-03T03:26:44.507Z,66.64
2019-05-03T03:27:45.193Z,66.75
2019-05-03T03:28:42.680Z,67.57
2019-05-03T03:29:42.711Z,67.57
2019-05-03T03:30:42.684Z,68.38
2019-05-03T03:31:42.654Z,67.16
2019-05-03T03:32:42.640Z,68.41
2019-05-03T03:33:47.098Z,69.24
2019-05-03T03:34:53.393Z,68.08
2019-05-03T03:35:48.415Z,69.03
2019-05-03T03:36:58.925Z,68.73
2019-05-03T03:37:45.992Z,68.52
2019-05-03T03:38:42.582Z,68.62
2019-05-03T03:39:42.555Z,69.65
2019-05-03T03:40:45.209Z,69.24
2019-05-03T03:41:45.132Z,69.89
2019-05-03T03:42:44.834Z,69.44
2019-05-03T03:43:42.617Z,69.78
2019-05-03T03:44:42.499Z,69.57
2019-05-03T03:45:45.239Z,70.19
2019-05-03T03:46:44.895Z,70.60
2019-05-03T03:47:42.473Z,70.50
2019-05-03T03:48:42.461Z,70.29
2019-05-03T03:49:42.472Z,70.60
2019-05-03T03:50:45.589Z,70.70
2019-05-03T03:51:42.427Z,71.01
2019-05-03T03:52:45.047Z,71.66
2019-05-03T03:53:42.406Z,70.70
2019-05-03T03:54:42.405Z,72.03
2019-05-03T03:55:42.502Z,71.86
2019-05-03T03:56:55.872Z,72.17
2019-05-03T03:57:46.522Z,72.68
2019-05-03T03:58:42.365Z,72.27
2019-05-03T03:59:42.353Z,72.58
2019-05-03T04:00:42.324Z,72.27
2019-05-03T04:01:42.330Z,72.61
2019-05-03T04:02:42.314Z,72.27
2019-05-03T04:03:42.289Z,72.38
2019-05-03T04:04:42.281Z,72.41
2019-05-03T04:05:42.290Z,72.72
2019-05-03T04:06:42.313Z,73.19
2019-05-03T04:07:42.270Z,73.50
2019-05-03T04:08:42.248Z,73.13
2019-05-03T04:09:42.227Z,73.81
2019-05-03T04:10:42.214Z,74.43
2019-05-03T04:11:42.234Z,73.50
2019-05-03T04:12:42.203Z,74.15
2019-05-03T04:13:42.194Z,73.50
2019-05-03T04:14:42.172Z,73.30
2019-05-03T04:15:42.161Z,73.61
2019-05-03T04:16:42.236Z,74.22
2019-05-03T04:17:42.143Z,73.74
2019-05-03T04:18:42.127Z,74.43
2019-05-03T04:19:42.124Z,74.87
2019-05-03T04:20:42.105Z,74.53
2019-05-03T04:21:42.125Z,74.77
2019-05-03T04:22:42.097Z,74.73
2019-05-03T04:23:42.073Z,74.63
2019-05-03T04:24:42.063Z,74.53
2019-05-03T04:25:42.043Z,74.94
2019-05-03T04:26:42.054Z,74.73
2019-05-03T04:27:42.038Z,74.94
2019-05-03T04:28:42.015Z,75.76
2019-05-03T04:29:42.008Z,75.76
2019-05-03T04:30:41.992Z,75.76
2019-05-03T04:31:41.981Z,75.96
2019-05-03T04:32:41.986Z,76.37
2019-05-03T04:33:41.962Z,75.45
2019-05-03T04:34:41.973Z,76.89
2019-05-03T04:35:41.967Z,75.56
2019-05-03T04:36:41.926Z,75.96
2019-05-03T04:37:41.928Z,76.07
2019-05-03T04:38:41.914Z,76.27
2019-05-03T04:39:41.898Z,77.16
2019-05-03T04:40:41.901Z,76.99
2019-05-03T04:41:41.881Z,76.85
2019-05-03T04:42:41.881Z,76.65
2019-05-03T04:43:41.874Z,76.65
2019-05-03T04:44:41.839Z,76.34
2019-05-03T04:45:41.833Z,76.34
2019-05-03T04:46:41.846Z,76.65
2019-05-03T04:47:41.821Z,76.54
2019-05-03T04:48:41.796Z,76.65
2019-05-03T04:49:41.786Z,76.14
2019-05-03T04:50:41.784Z,76.24
2019-05-03T04:51:41.764Z,76.40
2019-05-03T04:52:41.785Z,76.31
2019-05-03T04:53:41.756Z,76.10
2019-05-03T04:54:41.739Z,76.14
2019-05-03T04:55:41.731Z,75.89
2019-05-03T04:56:41.727Z,75.99
2019-05-03T04:57:45.923Z,75.89
2019-05-03T04:58:45.673Z,76.61
2019-05-03T04:59:41.698Z,76.61
2019-05-03T05:00:41.658Z,77.12
2019-05-03T05:01:41.646Z,75.48
2019-05-03T05:02:41.673Z,75.79
2019-05-03T05:03:41.640Z,75.96
2019-05-03T05:04:41.625Z,76.31
2019-05-03T05:05:41.604Z,76.27
2019-05-03T05:06:41.597Z,75.79
2019-05-03T05:07:41.581Z,74.94
2019-05-03T05:08:41.598Z,74.26
2019-05-03T05:09:41.571Z,75.65
2019-05-03T05:10:41.549Z,76.17
2019-05-03T05:11:41.538Z,75.55
2019-05-03T05:12:41.539Z,76.17
2019-05-03T05:13:41.544Z,76.06
2019-05-03T05:14:41.509Z,76.06
2019-05-03T05:15:41.494Z,76.06
2019-05-03T05:16:41.482Z,75.14
2019-05-03T05:17:41.486Z,75.55
2019-05-03T05:18:41.489Z,75.55
2019-05-03T05:19:41.457Z,75.35
2019-05-03T05:20:41.449Z,75.86
2019-05-03T05:21:41.430Z,75.35
2019-05-03T05:22:41.440Z,75.76
2019-05-03T05:23:41.424Z,75.45
2019-05-03T05:24:41.427Z,75.65
2019-05-03T05:25:41.389Z,75.65
2019-05-03T05:26:41.375Z,76.06
2019-05-03T05:27:48.786Z,75.31
2019-05-03T05:28:42.355Z,75.86
2019-05-03T05:29:41.359Z,75.96
2019-05-03T05:30:41.368Z,75.96
2019-05-03T05:31:41.326Z,75.31
2019-05-03T05:32:41.323Z,75.45
2019-05-03T05:33:41.313Z,76.27
2019-05-03T05:34:41.342Z,76.17
2019-05-03T05:35:41.300Z,75.52
2019-05-03T05:36:41.266Z,74.11
2019-05-03T05:37:41.258Z,74.39
2019-05-03T05:38:41.256Z,74.08
2019-05-03T05:39:41.259Z,74.08
2019-05-03T05:40:41.222Z,74.29
2019-05-03T05:41:41.218Z,74.19
2019-05-03T05:42:41.221Z,75.21
2019-05-03T05:43:41.191Z,74.69
2019-05-03T05:44:41.195Z,75.72
2019-05-03T05:45:41.191Z,75.17
2019-05-03T05:46:41.158Z,74.80
2019-05-03T05:47:41.155Z,73.94
2019-05-03T05:48:41.154Z,74.60
2019-05-03T05:49:41.142Z,74.69
2019-05-03T05:50:41.120Z,74.05
2019-05-03T05:51:41.109Z,72.52
2019-05-03T05:52:41.093Z,72.82
2019-05-03T05:53:41.087Z,72.72
2019-05-03T05:54:41.101Z,72.52
2019-05-03T05:55:41.090Z,72.41
2019-05-03T05:56:41.054Z,73.64
2019-05-03T05:57:41.040Z,74.46
2019-05-03T05:58:41.061Z,73.54
2019-05-03T05:59:41.028Z,73.94
2019-05-03T06:00:41.047Z,74.66
2019-05-03T06:01:40.995Z,73.54
2019-05-03T06:02:40.994Z,73.94
2019-05-03T06:03:40.984Z,75.24
2019-05-03T06:04:40.972Z,75.65
2019-05-03T06:05:40.986Z,75.27
2019-05-03T06:06:40.943Z,73.74
2019-05-03T06:07:40.940Z,73.50
2019-05-03T06:08:40.928Z,73.10
2019-05-03T06:09:40.922Z,72.69
2019-05-03T06:10:40.915Z,71.87
2019-05-03T06:11:40.894Z,71.94
2019-05-03T06:12:40.880Z,74.22
2019-05-03T06:13:40.876Z,74.02
2019-05-03T06:14:40.860Z,73.10
2019-05-03T06:15:40.882Z,73.06
2019-05-03T06:16:40.838Z,72.34
2019-05-03T06:17:40.824Z,72.45
2019-05-03T06:18:40.815Z,72.34
2019-05-03T06:19:40.809Z,72.65
2019-05-03T06:20:40.811Z,71.59
2019-05-03T06:21:40.795Z,71.70
2019-05-03T06:22:40.777Z,71.70
2019-05-03T06:23:40.763Z,70.37
2019-05-03T06:24:40.746Z,70.68
2019-05-03T06:25:40.742Z,70.88
2019-05-03T06:26:40.751Z,70.88
2019-05-03T06:27:40.713Z,71.19
2019-05-03T06:28:41.799Z,70.68
2019-05-03T06:29:40.703Z,69.86
2019-05-03T06:30:40.685Z,71.39
2019-05-03T06:31:40.703Z,70.68
2019-05-03T06:32:40.657Z,70.98
2019-05-03T06:33:40.663Z,72.31
2019-05-03T06:34:40.642Z,71.39
2019-05-03T06:35:40.623Z,71.91
2019-05-03T06:36:40.661Z,71.59
2019-05-03T06:37:40.621Z,70.78
2019-05-03T06:38:42.285Z,71.29
2019-05-03T06:39:40.581Z,72.31
2019-05-03T06:40:40.721Z,70.88
2019-05-03T06:41:41.027Z,71.19
2019-05-03T06:42:51.581Z,70.68
2019-05-03T06:43:45.104Z,70.68
2019-05-03T06:44:41.532Z,70.98
2019-05-03T06:45:41.071Z,70.27
2019-05-03T06:46:41.550Z,70.57
2019-05-03T06:47:45.210Z,70.88
2019-05-03T06:48:41.479Z,70.98
2019-05-03T06:49:44.808Z,70.98
2019-05-03T06:50:41.466Z,70.37
2019-05-03T06:51:44.841Z,69.93
2019-05-03T06:52:41.557Z,71.05
2019-05-03T06:53:41.854Z,70.34
2019-05-03T06:54:41.424Z,69.86
2019-05-03T06:55:45.554Z,70.34
2019-05-03T06:56:41.473Z,70.64
2019-05-03T06:57:45.571Z,70.34
2019-05-03T06:58:41.382Z,69.42
2019-05-03T06:59:40.378Z,70.44
2019-05-03T07:00:40.350Z,70.85
2019-05-03T07:01:40.339Z,70.54
2019-05-03T07:02:40.402Z,69.73
2019-05-03T07:03:40.312Z,69.42
2019-05-03T07:04:40.332Z,69.01
2019-05-03T07:05:40.307Z,68.37
2019-05-03T07:06:40.831Z,67.99
2019-05-03T07:07:40.291Z,69.38
2019-05-03T07:08:40.262Z,68.26
2019-05-03T07:09:40.252Z,68.98
2019-05-03T07:10:40.268Z,69.18
2019-05-03T07:11:40.239Z,68.67
2019-05-03T07:12:40.237Z,69.49
2019-05-03T07:13:40.203Z,68.23
2019-05-03T07:14:40.206Z,67.52
2019-05-03T07:15:40.182Z,66.94
2019-05-03T07:16:40.180Z,67.11
2019-05-03T07:17:40.173Z,66.09
2019-05-03T07:18:40.165Z,65.68
2019-05-03T07:19:40.138Z,64.46
2019-05-03T07:20:40.124Z,64.36
2019-05-03T07:21:40.115Z,64.15
2019-05-03T07:22:40.168Z,64.15
2019-05-03T07:23:40.092Z,64.76
2019-05-03T07:24:40.954Z,63.85
2019-05-03T07:25:40.070Z,62.90
2019-05-03T07:26:40.058Z,62.90
2019-05-03T07:27:40.572Z,62.42
2019-05-03T07:28:47.013Z,62.42
2019-05-03T07:29:41.062Z,61.78
2019-05-03T07:30:40.020Z,62.01
2019-05-03T07:31:39.999Z,62.01
2019-05-03T07:32:39.991Z,61.80
2019-05-03T07:33:39.999Z,63.41
2019-05-03T07:34:39.977Z,63.58
2019-05-03T07:35:40.011Z,63.48
2019-05-03T07:36:39.963Z,64.98
2019-05-03T07:37:39.975Z,63.45
2019-05-03T07:38:39.943Z,61.29
2019-05-03T07:39:39.934Z,60.95
2019-05-03T07:40:39.903Z,62.27
2019-05-03T07:41:39.887Z,62.04
2019-05-03T07:42:39.889Z,59.50
2019-05-03T07:43:39.918Z,59.37
2019-05-03T07:44:39.857Z,60.86
2019-05-03T07:45:39.846Z,58.09
2019-05-03T07:46:39.832Z,57.28
2019-05-03T07:47:39.825Z,56.98
2019-05-03T07:48:39.854Z,56.67
2019-05-03T07:49:39.810Z,56.95
2019-05-03T07:50:39.802Z,54.82
2019-05-03T07:51:39.775Z,55.15
2019-05-03T07:52:39.774Z,56.13
2019-05-03T07:53:39.772Z,55.83
2019-05-03T07:54:39.741Z,55.83
2019-05-03T07:55:39.738Z,56.24
2019-05-03T07:56:39.724Z,56.04
2019-05-03T07:57:39.717Z,55.02
2019-05-03T07:58:39.746Z,54.90
2019-05-03T07:59:39.689Z,54.18
2019-05-03T08:00:39.681Z,55.71
2019-05-03T08:01:39.668Z,55.71
2019-05-03T08:02:39.703Z,54.08
2019-05-03T08:03:39.701Z,54.16
2019-05-03T08:04:39.630Z,55.15
2019-05-03T08:05:39.628Z,53.02
2019-05-03T08:06:39.613Z,53.93
2019-05-03T08:07:39.605Z,53.19
2019-05-03T08:08:39.590Z,53.83
2019-05-03T08:09:39.604Z,52.59
2019-05-03T08:10:39.563Z,53.09
2019-05-03T08:11:39.561Z,55.52
2019-05-03T08:12:39.648Z,52.59
2019-05-03T08:13:39.555Z,51.67
2019-05-03T08:14:39.534Z,52.28
2019-05-03T08:15:39.508Z,51.17
2019-05-03T08:16:39.504Z,52.41
2019-05-03T08:17:39.506Z,52.31
2019-05-03T08:18:39.511Z,52.11
2019-05-03T08:19:39.500Z,51.70
2019-05-03T08:20:39.452Z,52.13
2019-05-03T08:21:39.462Z,50.81
2019-05-03T08:22:39.432Z,50.43
2019-05-03T08:23:39.441Z,50.81
2019-05-03T08:24:39.480Z,50.73
2019-05-03T08:25:39.399Z,50.73
2019-05-03T08:26:39.428Z,50.73
2019-05-03T08:27:39.381Z,52.56
2019-05-03T08:28:39.368Z,50.43
2019-05-03T08:29:39.372Z,50.76
2019-05-03T08:30:39.395Z,52.46
2019-05-03T08:31:39.338Z,53.47
2019-05-03T08:32:39.324Z,53.45
2019-05-03T08:33:39.316Z,55.96
2019-05-03T08:34:39.326Z,53.93
2019-05-03T08:35:39.305Z,52.99
2019-05-03T08:36:39.309Z,52.89
2019-05-03T08:37:39.276Z,51.27
2019-05-03T08:38:39.278Z,51.60
2019-05-03T08:39:39.285Z,52.51
2019-05-03T08:40:39.247Z,52.08
2019-05-03T08:41:39.230Z,52.89
2019-05-03T08:42:39.220Z,52.48
2019-05-03T08:43:39.218Z,50.54
2019-05-03T08:44:39.224Z,52.15
2019-05-03T08:45:39.192Z,51.95
2019-05-03T08:46:39.170Z,52.15
2019-05-03T08:47:39.166Z,50.43
2019-05-03T08:48:39.167Z,49.32
2019-05-03T08:49:39.156Z,49.93
2019-05-03T08:50:39.145Z,48.41
2019-05-03T08:51:39.119Z,48.41
2019-05-03T08:52:39.153Z,48.63
2019-05-03T08:53:39.092Z,48.43
2019-05-03T08:54:39.081Z,47.72
2019-05-03T08:55:39.095Z,49.14
2019-05-03T08:56:39.058Z,48.54
2019-05-03T08:57:39.050Z,51.25
2019-05-03T08:58:39.040Z,49.95
2019-05-03T08:59:39.047Z,49.52
2019-05-03T09:00:39.037Z,49.24
2019-05-03T09:01:39.498Z,48.11
2019-05-03T09:02:38.992Z,49.83
2019-05-03T09:03:38.986Z,50.03
2019-05-03T09:04:42.946Z,48.83
2019-05-03T09:05:38.981Z,48.41
2019-05-03T09:06:38.963Z,47.62
2019-05-03T09:07:38.941Z,46.71
2019-05-03T09:08:38.950Z,47.82
2019-05-03T09:09:38.920Z,48.83
2019-05-03T09:10:38.919Z,48.91
2019-05-03T09:11:38.891Z,48.11
2019-05-03T09:12:38.896Z,47.98
2019-05-03T09:13:38.886Z,46.67
2019-05-03T09:14:45.259Z,46.95
2019-05-03T09:15:39.883Z,46.44
2019-05-03T09:16:38.863Z,47.66
2019-05-03T09:17:38.829Z,47.74
2019-05-03T09:18:38.823Z,47.63
2019-05-03T09:19:38.820Z,46.80
2019-05-03T09:20:38.795Z,47.41
2019-05-03T09:21:38.798Z,46.68
2019-05-03T09:22:38.772Z,45.95
2019-05-03T09:23:38.768Z,44.64
2019-05-03T09:24:38.749Z,45.12
2019-05-03T09:25:38.741Z,45.73
2019-05-03T09:26:38.756Z,44.11
2019-05-03T09:27:38.716Z,42.60
2019-05-03T09:28:38.710Z,40.36
2019-05-03T09:29:43.145Z,42.27
2019-05-03T09:30:38.686Z,41.67
2019-05-03T09:31:38.687Z,41.27
2019-05-03T09:32:38.670Z,42.47
2019-05-03T09:33:38.656Z,41.97
2019-05-03T09:34:38.649Z,42.07
2019-05-03T09:35:38.638Z,42.47
2019-05-03T09:36:38.674Z,42.47
2019-05-03T09:37:38.625Z,41.49
2019-05-03T09:38:40.474Z,42.49
2019-05-03T09:39:38.584Z,42.72
2019-05-03T09:40:38.569Z,41.20
2019-05-03T09:41:38.613Z,43.93
2019-05-03T09:42:38.553Z,45.12
2019-05-03T09:43:38.556Z,43.71
2019-05-03T09:44:38.539Z,43.71
2019-05-03T09:45:38.532Z,43.48
2019-05-03T09:46:38.539Z,45.10
2019-05-03T09:47:38.506Z,43.28
2019-05-03T09:48:38.485Z,41.77
2019-05-03T09:49:38.483Z,42.07
2019-05-03T09:50:38.463Z,41.97
2019-05-03T09:51:38.473Z,41.47
2019-05-03T09:52:38.463Z,42.60
2019-05-03T09:53:38.431Z,41.89
2019-05-03T09:54:38.415Z,41.39
2019-05-03T09:55:38.420Z,39.47
2019-05-03T09:56:44.702Z,41.71
2019-05-03T09:57:39.391Z,41.71
2019-05-03T09:58:38.387Z,41.81
2019-05-03T09:59:38.361Z,41.42
2019-05-03T10:00:38.360Z,41.63
2019-05-03T10:01:38.422Z,41.14
2019-05-03T10:02:38.330Z,42.46
2019-05-03T10:03:38.319Z,43.38
2019-05-03T10:04:38.308Z,42.78
2019-05-03T10:05:38.304Z,43.51
2019-05-03T10:06:38.285Z,45.03
2019-05-03T10:07:38.292Z,45.73
2019-05-03T10:08:38.281Z,46.54
2019-05-03T10:09:38.255Z,46.44
2019-05-03T10:10:38.254Z,47.75
2019-05-03T10:11:38.235Z,47.83
2019-05-03T10:12:38.257Z,46.09
2019-05-03T10:13:41.655Z,45.89
2019-05-03T10:14:38.202Z,45.29
2019-05-03T10:15:38.188Z,46.50
2019-05-03T10:16:38.207Z,47.59
2019-05-03T10:17:38.181Z,47.59
2019-05-03T10:18:38.153Z,46.36
2019-05-03T10:19:40.391Z,42.70
2019-05-03T10:20:38.135Z,42.70
2019-05-03T10:21:38.140Z,38.96
2019-05-03T10:22:38.131Z,40.68
2019-05-03T10:23:38.109Z,40.98
2019-05-03T10:24:38.089Z,41.59
2019-05-03T10:25:40.290Z,43.60
2019-05-03T10:26:38.069Z,41.99
2019-05-03T10:27:38.070Z,43.40
2019-05-03T10:28:38.051Z,42.49
2019-05-03T10:29:38.034Z,41.99
2019-05-03T10:30:38.049Z,42.60
2019-05-03T10:31:38.010Z,41.41
2019-05-03T10:32:38.017Z,42.72
2019-05-03T10:33:37.984Z,43.44
2019-05-03T10:34:37.975Z,42.33
2019-05-03T10:35:37.962Z,43.14
2019-05-03T10:36:37.962Z,43.34
2019-05-03T10:37:37.941Z,42.46
2019-05-03T10:38:37.952Z,41.44
2019-05-03T10:39:37.921Z,44.07
2019-05-03T10:40:37.910Z,43.49
2019-05-03T10:41:37.907Z,43.38
2019-05-03T10:42:38.278Z,43.49
2019-05-03T10:43:37.900Z,46.04
2019-05-03T10:44:38.108Z,44.52
2019-05-03T10:45:37.852Z,45.33
2019-05-03T10:46:37.859Z,44.62
2019-05-03T10:47:37.834Z,44.01
2019-05-03T10:48:37.837Z,46.04
2019-05-03T10:49:37.827Z,44.52
2019-05-03T10:50:37.803Z,46.04
2019-05-03T10:51:37.801Z,46.01
2019-05-03T10:52:38.342Z,45.12
2019-05-03T10:53:37.800Z,45.94
2019-05-03T10:54:38.398Z,43.41
2019-05-03T10:55:37.745Z,42.80
2019-05-03T10:56:37.734Z,45.33
2019-05-03T10:57:37.725Z,44.01
2019-05-03T10:58:37.734Z,44.03
2019-05-03T10:59:37.702Z,43.12
2019-05-03T11:00:45.143Z,42.61
2019-05-03T11:01:38.677Z,42.63
2019-05-03T11:02:37.683Z,42.74
2019-05-03T11:03:37.653Z,43.75
2019-05-03T11:04:37.686Z,43.65
2019-05-03T11:05:37.630Z,44.76
2019-05-03T11:06:37.628Z,44.99
2019-05-03T11:07:37.613Z,44.18
2019-05-03T11:08:37.616Z,46.71
2019-05-03T11:09:48.735Z,44.18
2019-05-03T11:10:38.581Z,44.48
2019-05-03T11:11:37.572Z,44.89
2019-05-03T11:12:37.555Z,45.59
2019-05-03T11:13:37.550Z,44.07
2019-05-03T11:14:37.560Z,45.09
2019-05-03T11:15:37.537Z,46.20
2019-05-03T11:16:37.517Z,47.90
2019-05-03T11:17:37.499Z,48.61
2019-05-03T11:18:37.488Z,45.35
2019-05-03T11:19:37.491Z,43.93
2019-05-03T11:20:37.475Z,43.63
2019-05-03T11:21:37.463Z,42.60
2019-05-03T11:22:37.447Z,44.01
2019-05-03T11:23:37.431Z,43.81
2019-05-03T11:24:37.460Z,43.81
2019-05-03T11:25:37.442Z,46.44
2019-05-03T11:26:37.414Z,47.03
2019-05-03T11:27:37.398Z,43.16
2019-05-03T11:28:37.402Z,43.37
2019-05-03T11:29:37.415Z,45.16
2019-05-03T11:30:37.353Z,42.43
2019-05-03T11:31:37.353Z,43.24
2019-05-03T11:32:37.350Z,42.32
2019-05-03T11:33:37.322Z,43.12
2019-05-03T11:34:37.331Z,43.63
2019-05-03T11:35:37.333Z,41.61
2019-05-03T11:36:37.295Z,40.08
2019-05-03T11:37:37.275Z,41.18
2019-05-03T11:38:37.268Z,42.49
2019-05-03T11:39:37.276Z,42.01
2019-05-03T11:40:37.267Z,41.50
2019-05-03T11:41:37.253Z,39.39
2019-05-03T11:42:37.237Z,40.30
2019-05-03T11:43:37.214Z,41.22
2019-05-03T11:44:37.201Z,42.32
2019-05-03T11:45:37.218Z,41.50
2019-05-03T11:46:37.206Z,42.03
2019-05-03T11:47:37.172Z,40.31
2019-05-03T11:48:37.164Z,40.82
2019-05-03T11:49:37.144Z,41.63
2019-05-03T11:50:37.164Z,41.42
2019-05-03T11:51:37.134Z,42.23
2019-05-03T11:52:37.109Z,41.02
2019-05-03T11:53:37.112Z,40.03
2019-05-03T11:54:37.090Z,40.94
2019-05-03T11:55:37.147Z,42.46
2019-05-03T11:56:37.080Z,42.76
2019-05-03T11:57:37.063Z,41.44
2019-05-03T11:58:37.070Z,42.37
2019-05-03T11:59:37.037Z,43.18
2019-05-03T12:00:37.033Z,42.27
2019-05-03T12:01:37.047Z,42.37
2019-05-03T12:02:37.021Z,41.26
2019-05-03T12:03:36.999Z,43.69
2019-05-03T12:04:36.987Z,44.20
2019-05-03T12:05:36.996Z,44.17
2019-05-03T12:06:36.999Z,44.07
2019-05-03T12:07:39.904Z,42.05
2019-05-03T12:08:36.933Z,42.76
2019-05-03T12:09:36.934Z,42.55
2019-05-03T12:10:52.535Z,41.64
2019-05-03T12:11:37.898Z,42.03
2019-05-03T12:12:36.906Z,41.52
2019-05-03T12:13:36.884Z,43.24
2019-05-03T12:14:36.874Z,40.41
2019-05-03T12:15:36.879Z,42.41
2019-05-03T12:17:10.903Z,41.71
2019-05-03T12:17:50.373Z,41.42
2019-05-03T12:18:48.957Z,40.90
2019-05-03T12:19:39.181Z,40.30
2019-05-03T12:20:38.200Z,38.98
2019-05-03T12:21:38.201Z,40.09
2019-05-03T12:22:37.218Z,42.11
2019-05-03T12:23:37.441Z,43.23
2019-05-03T12:24:37.424Z,41.71
2019-05-03T12:25:37.283Z,44.51
2019-05-03T12:26:43.910Z,42.29
2019-05-03T12:27:37.727Z,42.40
2019-05-03T12:28:36.735Z,42.49
2019-05-03T12:29:36.702Z,42.38
2019-05-03T12:30:36.691Z,40.66
2019-05-03T12:31:40.407Z,41.06
2019-05-03T12:32:36.689Z,38.02
2019-05-03T12:33:36.706Z,39.13
2019-05-03T12:34:36.646Z,39.43
2019-05-03T12:35:36.638Z,38.52
2019-05-03T12:36:39.185Z,37.31
2019-05-03T12:37:36.628Z,37.23
2019-05-03T12:38:36.606Z,37.43
2019-05-03T12:39:36.602Z,38.46
2019-05-03T12:40:36.600Z,37.93
2019-05-03T12:41:36.585Z,39.47
2019-05-03T12:42:36.575Z,39.47
2019-05-03T12:43:36.562Z,38.17
2019-05-03T12:44:36.535Z,39.18
2019-05-03T12:45:36.524Z,39.28
2019-05-03T12:46:36.540Z,40.70
2019-05-03T12:47:36.511Z,39.99
2019-05-03T12:48:36.495Z,39.79
2019-05-03T12:49:36.481Z,41.18
2019-05-03T12:50:36.754Z,39.57
2019-05-03T12:51:36.459Z,39.17
2019-05-03T12:52:49.523Z,39.65